Time;durP1;ratioP1;P1;durP2;ratioP2;P2;SDS_P1;SDS_P2;PMS_P1;PMS_P2;Temp;Humidity;BMP_temperature;BMP_pressure;BME280_temperature;BME280_humidity;BME280_pressure;Samples;Min_cycle;Max_cycle;Signal;HPM_P1;HPM_P2
2022/09/22 05:11:08;;;;;;;;;;;;;;;4.68;100.00;98647.66;5020156;28;19932;-45
2022/09/22 05:13:37;;;;;;;;;;;;;;;4.73;100.00;98651.00;5026142;28;20020;-46
2022/09/22 05:16:05;;;;;;;;;;;;;;;4.72;100.00;98649.25;5022988;28;19932;-44
2022/09/22 05:18:32;;;;;;;;;;;;;;;4.76;100.00;98647.44;5021259;28;20043;-45
2022/09/22 05:21:00;;;;;;;;;;;;;;;4.77;100.00;98650.91;5024968;28;19931;-45
2022/09/22 05:23:27;;;;;;;;;;;;;;;4.65;100.00;98653.00;5024514;28;19925;-49
2022/09/22 05:25:55;;;;;;;;;;;;;;;4.74;100.00;98655.28;5004747;28;19926;-46
2022/09/22 05:28:24;;;;;;;;;;;;;;;4.79;100.00;98650.78;5005378;28;20380;-44
2022/09/22 05:30:51;;;;;;;;;;;;;;;4.73;100.00;98648.38;5006281;28;20015;-47
2022/09/22 05:33:18;;;;;;;;;;;;;;;4.79;100.00;98648.19;5004071;28;20460;-45
2022/09/22 05:35:46;;;;;;;;;;;;;;;4.79;100.00;98655.16;5005356;28;19980;-47
2022/09/22 05:38:13;;;;;;;;;;;;;;;4.90;100.00;98657.41;5021443;28;19940;-46
2022/09/22 05:40:40;;;;;;;;;;;;;;;4.78;100.00;98651.69;5019912;28;19925;-45
2022/09/22 05:43:07;;;;;;;;;;;;;;;4.96;100.00;98659.84;5021810;28;19936;-45
2022/09/22 05:45:36;;;;;;;;;;;;;;;4.93;100.00;98663.41;5038274;28;19936;-44
2022/09/22 05:48:03;;;;;;;;;;;;;;;4.89;100.00;98664.38;5006533;28;20269;-48
2022/09/22 05:50:30;;;;;;;;;;;;;;;4.86;100.00;98661.91;5025588;28;20001;-46
2022/09/22 05:53:04;;;;;;;;;;;;;;;4.82;100.00;98666.34;5026235;28;20027;-45
2022/09/22 05:55:31;;;;;;;;;;;;;;;4.86;100.00;98674.94;5043555;28;19929;-49
2022/09/22 05:57:59;;;;;;;;;;;;;;;4.82;100.00;98674.16;5030986;28;20384;-45
2022/09/22 06:00:26;;;;;;;;;;;;;;;4.95;100.00;98674.63;5025255;28;19959;-46
2022/09/22 06:02:55;;;;;;;;;;;;;;;4.87;100.00;98663.59;5037453;28;19935;-45
2022/09/22 06:05:22;;;;;;;;;;;;;;;4.93;100.00;98676.44;5030371;28;20055;-47
2022/09/22 06:07:58;;;;;;;;;;;;;;;4.88;100.00;98673.09;5031726;28;19925;-45
2022/09/22 06:10:25;;;;;;;;;;;;;;;4.91;100.00;98672.16;5031466;28;20007;-49
2022/09/22 06:12:57;;;;;;;;;;;;;;;5.01;100.00;98671.84;5030898;28;19969;-46
2022/09/22 06:15:24;;;;;;;;;;;;;;;5.14;100.00;98669.69;5018071;28;20412;-46
2022/09/22 06:17:52;;;;;;;;;;;;;;;5.32;100.00;98669.94;4975185;28;19936;-46
2022/09/22 06:20:21;;;;;;;;;;;;;;;5.32;100.00;98667.31;5021395;28;19925;-47
2022/09/22 06:22:48;;;;;;;;;;;;;;;5.50;100.00;98674.53;5031663;28;19925;-43
2022/09/22 06:25:15;;;;;;;;;;;;;;;5.23;100.00;98672.84;5031753;28;19935;-47
2022/09/22 06:27:43;;;;;;;;;;;;;;;5.33;100.00;98671.63;4997734;28;19936;-45
2022/09/22 06:30:11;;;;;;;;;;;;;;;5.61;100.00;98675.03;4992293;28;19932;-45
2022/09/22 06:32:39;;;;;;;;;;;;;;;5.67;100.00;98679.19;4992318;28;20369;-44
2022/09/22 06:35:06;;;;;;;;;;;;;;;5.46;100.00;98677.28;4990572;28;20300;-51
2022/09/22 06:37:37;;;;;;;;;;;;;;;5.54;100.00;98668.31;4993419;28;19929;-45
2022/09/22 06:40:06;;;;;;;;;;;;;;;5.69;100.00;98683.44;5011138;28;19972;-45
2022/09/22 06:42:34;;;;;;;;;;;;;;;5.50;100.00;98684.97;5010128;28;19929;-49
2022/09/22 06:45:03;;;;;;;;;;;;;;;5.57;100.00;98681.25;5011440;28;19925;-46
2022/09/22 06:47:31;;;;;;;;;;;;;;;6.04;100.00;98683.09;5011517;28;20016;-45
2022/09/22 06:50:00;;;;;;;;;;;;;;;5.60;100.00;98680.28;5011141;28;19952;-48
2022/09/22 06:52:27;;;;;;;;;;;;;;;5.76;100.00;98681.44;5010378;28;20020;-46
2022/09/22 06:54:59;;;;;;;;;;;;;;;5.74;100.00;98676.31;5011388;28;20423;-46
2022/09/22 06:57:31;;;;;;;;;;;;;;;6.18;100.00;98680.00;5011563;28;20330;-47
2022/09/22 07:00:00;;;;;;;;;;;;;;;5.97;100.00;98681.63;5011477;28;19930;-45
2022/09/22 07:02:28;;;;;;;;;;;;;;;6.14;100.00;98684.44;5011224;28;20291;-46
2022/09/22 07:04:57;;;;;;;;;;;;;;;6.12;100.00;98681.06;5011183;28;19929;-45
2022/09/22 07:07:26;;;;;;;;;;;;;;;6.53;100.00;98679.50;5010309;28;19963;-44
2022/09/22 07:09:53;;;;;;;;;;;;;;;6.45;100.00;98673.72;5011219;28;20364;-47
2022/09/22 07:12:22;;;;;;;;;;;;;;;6.40;100.00;98676.50;5010981;28;20342;-46
2022/09/22 07:14:51;;;;;;;;;;;;;;;6.47;100.00;98670.13;5008506;28;20326;-45
2022/09/22 07:17:19;;;;;;;;;;;;;;;6.11;100.00;98678.50;5010483;28;19930;-47
2022/09/22 07:19:46;;;;;;;;;;;;;;;6.16;100.00;98674.81;5010927;28;20005;-47
2022/09/22 07:22:14;;;;;;;;;;;;;;;6.40;100.00;98673.88;5008937;28;19925;-47
2022/09/22 07:24:41;;;;;;;;;;;;;;;6.38;100.00;98673.13;5010994;28;19929;-46
2022/09/22 07:27:09;;;;;;;;;;;;;;;6.89;100.00;98668.50;5018114;28;19925;-45
2022/09/22 07:29:38;;;;;;;;;;;;;;;7.10;100.00;98665.00;5013027;28;19925;-48
2022/09/22 07:32:05;;;;;;;;;;;;;;;6.88;100.00;98672.00;5010825;28;20032;-46
2022/09/22 07:34:32;;;;;;;;;;;;;;;7.23;100.00;98673.22;4993324;28;19935;-47
2022/09/22 07:37:01;;;;;;;;;;;;;;;7.50;100.00;98674.72;4993246;28;19929;-46
2022/09/22 07:39:28;;;;;;;;;;;;;;;7.44;100.00;98673.22;5009467;28;19926;-46
2022/09/22 07:41:55;;;;;;;;;;;;;;;6.80;100.00;98686.31;5010613;28;20023;-46
2022/09/22 07:47:08;;;;;;;;;;;;;;;6.49;100.00;98678.78;5010496;28;19926;-46
2022/09/22 07:49:35;;;;;;;;;;;;;;;6.61;100.00;98680.94;5010164;28;19925;-45
2022/09/22 07:52:02;;;;;;;;;;;;;;;6.85;100.00;98677.38;5009413;28;20299;-49
2022/09/22 07:54:29;;;;;;;;;;;;;;;6.78;100.00;98678.53;4977001;28;20380;-49
2022/09/22 07:56:58;;;;;;;;;;;;;;;7.23;100.00;98676.72;4990726;28;19932;-46
2022/09/22 07:59:25;;;;;;;;;;;;;;;6.97;100.00;98678.66;4990813;28;19958;-47
2022/09/22 08:01:52;;;;;;;;;;;;;;;7.27;100.00;98677.41;4988851;28;19936;-46
2022/09/22 08:04:22;;;;;;;;;;;;;;;6.91;100.00;98677.13;4972910;28;20344;-46
2022/09/22 08:06:52;;;;;;;;;;;;;;;7.05;100.00;98680.06;4990696;28;19952;-47
2022/09/22 08:09:19;;;;;;;;;;;;;;;7.36;100.00;98680.50;4987865;28;20381;-45
2022/09/22 08:11:47;;;;;;;;;;;;;;;7.10;100.00;98677.25;4990550;28;19925;-46
2022/09/22 08:14:16;;;;;;;;;;;;;;;7.13;100.00;98675.38;4990349;28;20021;-48
2022/09/22 08:16:44;;;;;;;;;;;;;;;7.36;100.00;98680.50;4988630;28;19926;-44
2022/09/22 08:19:12;;;;;;;;;;;;;;;7.01;100.00;98675.00;4990302;28;19925;-47
2022/09/22 08:21:41;;;;;;;;;;;;;;;7.16;100.00;98677.88;4990408;28;19966;-47
2022/09/22 08:24:09;;;;;;;;;;;;;;;7.42;100.00;98672.41;4988891;28;19988;-49
2022/09/22 08:26:36;;;;;;;;;;;;;;;7.69;100.00;98673.03;4990100;28;20007;-46
2022/09/22 08:29:04;;;;;;;;;;;;;;;7.76;100.00;98677.97;4990057;28;19929;-47
2022/09/22 08:31:32;;;;;;;;;;;;;;;7.68;100.00;98676.59;4990188;28;19926;-46
2022/09/22 08:33:59;;;;;;;;;;;;;;;7.98;100.00;98677.91;4971443;28;19926;-46
2022/09/22 08:36:27;;;;;;;;;;;;;;;7.88;100.00;98681.84;4990246;28;19980;-46
2022/09/22 08:38:56;;;;;;;;;;;;;;;7.83;100.00;98687.25;4990174;28;19973;-46
2022/09/22 08:41:28;;;;;;;;;;;;;;;7.87;100.00;98680.97;4986891;28;20439;-45
2022/09/22 08:43:58;;;;;;;;;;;;;;;7.88;100.00;98687.94;4989081;28;19934;-45
2022/09/22 08:46:27;;;;;;;;;;;;;;;8.06;100.00;98686.28;4988779;28;20011;-46
2022/09/22 08:51:53;;;;;;;;;;;;;;;7.91;100.00;98686.94;5009680;28;19972;-46
2022/09/22 08:54:24;;;;;;;;;;;;;;;7.83;100.00;98692.50;5008771;28;19927;-46
2022/09/22 08:56:59;;;;;;;;;;;;;;;8.13;100.00;98692.97;5009653;28;19933;-45
2022/09/22 08:59:30;;;;;;;;;;;;;;;7.86;100.00;98692.38;4990640;28;20032;-47
2022/09/22 09:02:06;;;;;;;;;;;;;;;8.04;100.00;98688.97;4991925;28;19951;-46
2022/09/22 09:04:50;;;;;;;;;;;;;;;7.95;100.00;98692.00;5009493;28;19968;-45
2022/09/22 09:07:22;;;;;;;;;;;;;;;7.96;100.00;98688.44;4992060;28;19925;-45
2022/09/22 09:09:56;;;;;;;;;;;;;;;7.96;100.00;98687.59;5009338;28;19929;-44
2022/09/22 09:12:30;;;;;;;;;;;;;;;8.13;100.00;98686.84;5007477;28;20376;-45
2022/09/22 09:15:15;;;;;;;;;;;;;;;8.29;100.00;98686.09;4991497;28;19925;-45
2022/09/22 09:17:45;;;;;;;;;;;;;;;8.15;100.00;98679.78;5007479;28;19968;-45
2022/09/22 09:20:16;;;;;;;;;;;;;;;8.85;100.00;98680.91;5009379;28;20608;-45
2022/09/22 09:22:47;;;;;;;;;;;;;;;8.65;100.00;98681.81;5009325;28;19926;-45
2022/09/22 09:25:21;;;;;;;;;;;;;;;8.90;100.00;98681.53;5007297;28;19960;-46
2022/09/22 09:27:51;;;;;;;;;;;;;;;8.72;100.00;98680.63;5009131;28;20277;-45
2022/09/22 09:30:19;;;;;;;;;;;;;;;8.83;100.00;98683.59;5009171;28;19949;-45
2022/09/22 09:32:49;;;;;;;;;;;;;;;8.82;100.00;98683.66;5007610;28;19925;-46
2022/09/22 09:35:17;;;;;;;;;;;;;;;8.52;100.00;98687.72;5009205;28;19929;-46
2022/09/22 09:37:45;;;;;;;;;;;;;;;8.78;100.00;98689.97;5009198;28;19926;-45
2022/09/22 09:40:14;;;;;;;;;;;;;;;8.47;100.00;98684.41;5010285;28;19932;-46
2022/09/22 09:42:43;;;;;;;;;;;;;;;8.58;100.00;98685.66;4995515;28;19995;-45
2022/09/22 09:45:12;;;;;;;;;;;;;;;8.35;100.00;98687.59;4995142;28;19930;-45
2022/09/22 09:47:46;;;;;;;;;;;;;;;8.84;100.00;98687.06;5010876;28;19930;-45
2022/09/22 09:50:15;;;;;;;;;;;;;;;8.81;100.00;98695.09;5012554;28;20407;-46
2022/09/22 09:52:42;;;;;;;;;;;;;;;8.91;100.00;98683.22;4995021;28;19952;-45
2022/09/22 09:55:18;;;;;;;;;;;;;;;8.52;100.00;98687.72;5010450;28;19980;-45
2022/09/22 09:58:03;;;;;;;;;;;;;;;8.77;100.00;98691.75;5012538;28;19979;-45
2022/09/22 10:00:30;;;;;;;;;;;;;;;8.78;100.00;98692.59;5010311;28;19930;-46
2022/09/22 10:03:04;;;;;;;;;;;;;;;8.78;100.00;98688.19;5012519;28;20024;-45
2022/09/22 10:05:34;;;;;;;;;;;;;;;8.61;100.00;98693.38;5012419;28;19925;-45
2022/09/22 10:08:02;;;;;;;;;;;;;;;8.98;100.00;98700.38;5010616;28;19925;-47
2022/09/22 10:10:35;;;;;;;;;;;;;;;8.70;100.00;98692.94;5012071;28;20032;-45
2022/09/22 10:13:26;;;;;;;;;;;;;;;8.69;100.00;98695.63;4994675;28;19926;-46
2022/09/22 10:16:14;;;;;;;;;;;;;;;8.75;100.00;98692.75;5012370;28;19980;-45
2022/09/22 10:18:41;;;;;;;;;;;;;;;9.06;100.00;98690.38;5005652;28;20027;-44
2022/09/22 10:21:14;;;;;;;;;;;;;;;8.63;100.00;98688.91;5012089;28;19925;-44
2022/09/22 10:23:41;;;;;;;;;;;;;;;8.61;100.00;98695.13;4994587;28;20393;-44
2022/09/22 10:26:19;;;;;;;;;;;;;;;8.89;100.00;98701.66;5010181;28;19931;-44
2022/09/22 10:29:05;;;;;;;;;;;;;;;8.97;100.00;98696.06;5011768;28;19925;-45
2022/09/22 10:31:33;;;;;;;;;;;;;;;9.13;100.00;98695.25;5010051;28;19932;-46
2022/09/22 10:34:00;;;;;;;;;;;;;;;9.18;100.00;98690.63;5011908;28;20368;-47
2022/09/22 10:36:30;;;;;;;;;;;;;;;9.43;100.00;98687.69;5011794;28;20316;-45
2022/09/22 10:38:57;;;;;;;;;;;;;;;9.18;100.00;98692.44;5009959;28;20375;-45
2022/09/22 10:41:29;;;;;;;;;;;;;;;9.27;100.00;98694.59;5011777;28;19925;-46
2022/09/22 10:43:59;;;;;;;;;;;;;;;9.10;100.00;98691.91;5011681;28;19925;-47
2022/09/22 10:46:35;;;;;;;;;;;;;;;9.15;100.00;98692.56;5009893;28;19932;-45
2022/09/22 10:49:08;;;;;;;;;;;;;;;9.56;100.00;98686.19;5011546;28;19931;-45
2022/09/22 10:51:40;;;;;;;;;;;;;;;9.62;100.00;98684.09;5011420;28;20040;-45
2022/09/22 10:54:20;;;;;;;;;;;;;;;9.61;100.00;98674.50;5011377;28;19925;-46
2022/09/22 10:56:50;;;;;;;;;;;;;;;9.49;100.00;98667.25;5011509;28;19933;-46
2022/09/22 10:59:32;;;;;;;;;;;;;;;9.74;100.00;98666.88;5008388;28;20016;-45
2022/09/22 11:02:17;;;;;;;;;;;;;;;9.68;100.00;98672.41;5023656;28;19932;-46
2022/09/22 11:04:53;;;;;;;;;;;;;;;10.10;100.00;98664.97;5029701;28;19929;-45
2022/09/22 11:13:14;;;;;;;;;;;;;;;9.94;100.00;98666.69;4971735;28;19941;-47
2022/09/22 11:15:56;;;;;;;;;;;;;;;9.97;100.00;98664.75;4990046;28;19951;-46
2022/09/22 11:18:44;;;;;;;;;;;;;;;9.82;100.00;98659.44;4989162;28;19926;-49
2022/09/22 11:21:18;;;;;;;;;;;;;;;10.32;100.00;98655.84;4999378;28;19933;-48
2022/09/22 11:23:50;;;;;;;;;;;;;;;9.93;100.00;98650.09;5005634;28;19972;-46
2022/09/22 11:26:27;;;;;;;;;;;;;;;9.95;100.00;98645.56;4997886;28;19925;-45
2022/09/22 11:29:05;;;;;;;;;;;;;;;9.59;100.00;98651.88;5017094;28;19934;-45
2022/09/22 11:31:41;;;;;;;;;;;;;;;9.61;100.00;98653.50;4991952;28;19933;-46
2022/09/22 11:34:26;;;;;;;;;;;;;;;10.02;100.00;98646.09;5001207;28;20299;-45
2022/09/22 11:36:58;;;;;;;;;;;;;;;9.63;100.00;98640.28;5008311;28;19941;-43
2022/09/22 11:39:33;;;;;;;;;;;;;;;10.01;100.00;98633.88;5009721;28;19926;-43
2022/09/22 11:42:07;;;;;;;;;;;;;;;10.21;100.00;98636.34;5007516;28;19980;-43
2022/09/22 11:44:36;;;;;;;;;;;;;;;10.25;100.00;98627.34;5006748;28;20333;-43
2022/09/22 11:47:15;;;;;;;;;;;;;;;10.71;100.00;98622.16;4993291;28;19925;-44
2022/09/22 11:49:51;;;;;;;;;;;;;;;10.99;100.00;98616.22;5000283;28;19932;-44
2022/09/22 11:52:25;;;;;;;;;;;;;;;10.77;100.00;98615.72;5010060;28;20031;-46
2022/09/22 11:55:05;;;;;;;;;;;;;;;11.69;100.00;98616.44;5008097;28;19995;-43
2022/09/22 11:57:35;;;;;;;;;;;;;;;11.60;100.00;98616.97;5010338;28;19926;-44
2022/09/22 12:00:06;;;;;;;;;;;;;;;11.17;100.00;98613.38;5009499;28;19929;-45
2022/09/22 12:02:46;;;;;;;;;;;;;;;11.15;100.00;98609.13;5009751;28;19925;-43
2022/09/22 12:05:18;;;;;;;;;;;;;;;10.61;100.00;98607.78;5009813;28;19925;-45
2022/09/22 12:07:46;;;;;;;;;;;;;;;10.22;100.00;98614.38;5006989;28;20015;-44
2022/09/22 12:10:15;;;;;;;;;;;;;;;9.92;100.00;98616.81;5008534;28;20345;-43
2022/09/22 12:12:47;;;;;;;;;;;;;;;9.85;100.00;98622.50;5005162;28;19995;-43
2022/09/22 12:15:20;;;;;;;;;;;;;;;9.98;100.00;98610.38;5003896;28;19935;-43
2022/09/22 12:17:51;;;;;;;;;;;;;;;9.75;100.00;98616.00;5009912;28;19930;-45
2022/09/22 12:20:28;;;;;;;;;;;;;;;9.73;100.00;98613.44;5009834;28;19926;-43
2022/09/22 12:23:13;;;;;;;;;;;;;;;9.76;100.00;98607.19;5008730;28;19933;-44
2022/09/22 12:25:47;;;;;;;;;;;;;;;9.78;100.00;98615.84;5009319;28;20304;-44
2022/09/22 12:28:15;;;;;;;;;;;;;;;9.80;100.00;98617.47;5009621;28;20347;-43
2022/09/22 12:30:52;;;;;;;;;;;;;;;10.01;100.00;98608.47;5009331;28;19932;-44
2022/09/22 12:33:22;;;;;;;;;;;;;;;10.06;100.00;98609.06;5006480;28;20412;-43
2022/09/22 12:35:53;;;;;;;;;;;;;;;10.10;100.00;98612.41;4992651;28;19926;-45
2022/09/22 12:38:21;;;;;;;;;;;;;;;9.94;100.00;98614.13;5004651;28;19933;-43
2022/09/22 12:40:48;;;;;;;;;;;;;;;10.01;100.00;98613.72;5007735;28;20023;-44
2022/09/22 12:43:18;;;;;;;;;;;;;;;10.05;100.00;98615.25;4988617;28;20063;-44
2022/09/22 12:45:45;;;;;;;;;;;;;;;9.85;100.00;98617.22;4989976;28;19930;-43
2022/09/22 12:48:15;;;;;;;;;;;;;;;9.58;100.00;98621.25;4989267;28;19925;-48
2022/09/22 12:50:44;;;;;;;;;;;;;;;9.60;100.00;98612.41;4992152;28;19929;-43
2022/09/22 12:53:23;;;;;;;;;;;;;;;9.25;100.00;98617.69;5009235;28;19929;-43
2022/09/22 12:55:51;;;;;;;;;;;;;;;9.39;100.00;98631.84;5004160;28;19933;-44
2022/09/22 12:58:36;;;;;;;;;;;;;;;9.83;100.00;98619.06;4996977;28;19929;-44
2022/09/22 13:01:18;;;;;;;;;;;;;;;9.14;100.00;98628.69;5021408;28;19925;-50
2022/09/22 13:03:49;;;;;;;;;;;;;;;8.93;100.00;98628.91;5028789;28;20396;-43
2022/09/22 13:06:35;;;;;;;;;;;;;;;9.03;100.00;98627.53;4995646;28;19938;-43
2022/09/22 13:09:18;;;;;;;;;;;;;;;8.86;100.00;98630.13;4989071;28;19961;-44
2022/09/22 13:12:04;;;;;;;;;;;;;;;8.69;100.00;98620.44;4987819;28;20369;-46
2022/09/22 13:14:49;;;;;;;;;;;;;;;8.33;100.00;98610.81;4991423;28;19937;-44
2022/09/22 13:17:35;;;;;;;;;;;;;;;8.74;100.00;98612.34;4974387;28;19952;-43
2022/09/22 13:20:07;;;;;;;;;;;;;;;8.88;100.00;98609.88;5000378;28;19926;-44
2022/09/22 13:22:35;;;;;;;;;;;;;;;9.01;100.00;98601.38;5003774;28;19949;-44
2022/09/22 13:25:15;;;;;;;;;;;;;;;8.63;100.00;98607.59;5013036;28;19925;-47
2022/09/22 13:27:42;;;;;;;;;;;;;;;8.50;100.00;98603.84;4995658;28;19941;-47
2022/09/22 13:30:12;;;;;;;;;;;;;;;8.46;100.00;98607.56;5012049;28;19932;-44
2022/09/22 13:32:39;;;;;;;;;;;;;;;8.68;100.00;98607.38;5013159;28;20024;-44
2022/09/22 13:35:22;;;;;;;;;;;;;;;8.97;100.00;98609.47;5012694;28;20392;-43
2022/09/22 13:37:49;;;;;;;;;;;;;;;9.24;100.00;98608.97;5012809;28;19965;-44
2022/09/22 13:40:18;;;;;;;;;;;;;;;9.48;100.00;98594.59;5012811;28;19929;-44
2022/09/22 13:42:45;;;;;;;;;;;;;;;9.67;100.00;98594.53;5011430;28;20439;-46
2022/09/22 13:45:17;;;;;;;;;;;;;;;9.53;100.00;98597.88;5015974;28;19925;-44
2022/09/22 13:47:45;;;;;;;;;;;;;;;9.78;100.00;98600.09;5030510;28;19925;-44
2022/09/22 13:50:14;;;;;;;;;;;;;;;9.60;100.00;98593.16;4994155;28;19932;-47
2022/09/22 13:52:41;;;;;;;;;;;;;;;9.74;100.00;98596.75;4995062;28;20332;-44
2022/09/22 13:55:12;;;;;;;;;;;;;;;9.64;100.00;98592.06;5012319;28;19925;-43
2022/09/22 13:57:41;;;;;;;;;;;;;;;9.60;100.00;98588.75;5012088;28;19925;-47
2022/09/22 14:00:17;;;;;;;;;;;;;;;9.46;100.00;98593.84;5011894;28;19926;-44
2022/09/22 14:02:45;;;;;;;;;;;;;;;9.49;100.00;98596.34;5012465;28;19979;-44
2022/09/22 14:05:16;;;;;;;;;;;;;;;9.27;100.00;98597.44;5010710;28;20341;-46
2022/09/22 14:07:44;;;;;;;;;;;;;;;9.09;100.00;98593.97;5012397;28;20400;-43
2022/09/22 14:10:15;;;;;;;;;;;;;;;9.06;100.00;98593.25;5011945;28;19961;-43
2022/09/22 14:12:44;;;;;;;;;;;;;;;9.03;100.00;98589.00;5009891;28;19932;-52
2022/09/22 14:15:29;;;;;;;;;;;;;;;8.88;100.00;98599.38;5006608;28;20585;-43
2022/09/22 14:17:57;;;;;;;;;;;;;;;8.66;100.00;98594.34;4992690;28;19932;-43
2022/09/22 14:20:25;;;;;;;;;;;;;;;8.47;100.00;98592.66;4995097;28;20384;-43
2022/09/22 14:22:53;;;;;;;;;;;;;;;8.49;100.00;98606.56;5012079;28;19926;-43
2022/09/22 14:25:21;;;;;;;;;;;;;;;8.46;100.00;98598.81;5011567;28;19930;-44
2022/09/22 14:27:54;;;;;;;;;;;;;;;8.36;100.00;98602.78;5009994;28;20280;-44
2022/09/22 14:30:25;;;;;;;;;;;;;;;8.31;100.00;98595.16;5011309;28;19925;-44
2022/09/22 14:32:54;;;;;;;;;;;;;;;8.35;100.00;98591.47;5011216;28;19972;-43
2022/09/22 14:35:30;;;;;;;;;;;;;;;8.26;100.00;98591.03;5010265;28;19926;-43
2022/09/22 14:38:00;;;;;;;;;;;;;;;8.16;100.00;98584.50;5011743;28;20299;-43
2022/09/22 14:40:27;;;;;;;;;;;;;;;8.03;100.00;98584.22;5010689;28;19933;-47
2022/09/22 14:43:02;;;;;;;;;;;;;;;8.05;100.00;98587.63;4993714;28;19926;-46
2022/09/22 14:45:31;;;;;;;;;;;;;;;8.03;100.00;98584.22;4994209;28;19925;-43
2022/09/22 14:48:16;;;;;;;;;;;;;;;8.08;100.00;98590.94;5010261;28;19980;-50
2022/09/22 14:50:45;;;;;;;;;;;;;;;8.15;100.00;98590.69;4996526;28;19980;-43
2022/09/22 14:53:20;;;;;;;;;;;;;;;8.06;100.00;98587.53;4990846;28;19930;-43
2022/09/22 14:55:50;;;;;;;;;;;;;;;8.03;100.00;98581.59;4991921;28;19980;-43
2022/09/22 14:58:22;;;;;;;;;;;;;;;8.08;100.00;98590.94;4991795;28;19930;-43
2022/09/22 15:03:37;;;;;;;;;;;;;;;7.97;100.00;98587.09;5011525;28;19925;-43
2022/09/22 15:06:08;;;;;;;;;;;;;;;7.99;100.00;98580.03;4989925;28;19925;-46
2022/09/22 15:08:35;;;;;;;;;;;;;;;7.93;100.00;98577.69;4991203;28;19926;-43
2022/09/22 15:11:03;;;;;;;;;;;;;;;8.04;100.00;98581.53;4991558;28;19933;-43
2022/09/22 15:13:38;;;;;;;;;;;;;;;8.51;100.00;98574.06;4991672;28;19926;-43
2022/09/22 15:16:06;;;;;;;;;;;;;;;8.81;100.00;98571.78;5003674;28;19925;-43
2022/09/22 15:18:33;;;;;;;;;;;;;;;8.90;100.00;98572.19;5010706;28;19957;-43
2022/09/22 15:21:04;;;;;;;;;;;;;;;8.96;100.00;98571.03;4993430;28;20380;-45
2022/09/22 15:23:38;;;;;;;;;;;;;;;8.78;100.00;98575.38;5010174;28;20016;-43
2022/09/22 15:26:05;;;;;;;;;;;;;;;8.60;100.00;98572.81;5010918;28;20452;-43
2022/09/22 15:28:37;;;;;;;;;;;;;;;8.70;100.00;98574.06;5009931;28;20399;-47
2022/09/22 15:31:04;;;;;;;;;;;;;;;8.60;100.00;98578.03;5010634;28;20643;-44
2022/09/22 15:33:31;;;;;;;;;;;;;;;8.41;100.00;98577.22;5010074;28;19972;-43
2022/09/22 15:36:01;;;;;;;;;;;;;;;8.35;100.00;98577.50;5010030;28;19925;-46
2022/09/22 15:38:30;;;;;;;;;;;;;;;8.30;100.00;98574.25;4991615;28;20222;-44
2022/09/22 15:40:57;;;;;;;;;;;;;;;8.22;100.00;98569.34;5010145;28;19983;-44
2022/09/22 15:43:29;;;;;;;;;;;;;;;8.21;100.00;98570.28;5010380;28;20373;-44
2022/09/22 15:46:01;;;;;;;;;;;;;;;8.06;100.00;98571.81;5008834;28;19934;-44
2022/09/22 15:48:30;;;;;;;;;;;;;;;8.09;100.00;98578.72;4992123;28;19934;-45
2022/09/22 15:50:58;;;;;;;;;;;;;;;8.04;100.00;98567.56;5010370;28;20024;-46
2022/09/22 15:53:26;;;;;;;;;;;;;;;7.90;100.00;98569.97;5026278;28;19933;-43
2022/09/22 15:55:54;;;;;;;;;;;;;;;7.69;100.00;98571.72;5029470;28;19936;-44
2022/09/22 15:58:22;;;;;;;;;;;;;;;7.58;100.00;98573.13;5029476;28;19982;-44
2022/09/22 16:00:50;;;;;;;;;;;;;;;7.45;100.00;98569.34;5008127;28;19968;-44
2022/09/22 16:03:21;;;;;;;;;;;;;;;7.34;100.00;98569.81;4999709;28;19940;-43
2022/09/22 16:05:50;;;;;;;;;;;;;;;7.31;100.00;98564.69;5002135;28;19930;-44
2022/09/22 16:08:19;;;;;;;;;;;;;;;7.30;100.00;98572.59;4997813;28;20005;-44
2022/09/22 16:10:46;;;;;;;;;;;;;;;7.26;100.00;98565.81;5006748;28;19930;-44
2022/09/22 16:13:13;;;;;;;;;;;;;;;7.14;100.00;98572.44;5004070;28;19937;-44
2022/09/22 16:15:40;;;;;;;;;;;;;;;7.06;100.00;98576.28;4995301;28;19932;-47
2022/09/22 16:18:08;;;;;;;;;;;;;;;7.08;100.00;98569.19;5000635;28;19937;-45
2022/09/22 16:20:37;;;;;;;;;;;;;;;7.08;100.00;98577.03;5003135;28;19969;-45
2022/09/22 16:23:05;;;;;;;;;;;;;;;7.09;100.00;98574.38;5002276;28;19988;-46
2022/09/22 16:25:32;;;;;;;;;;;;;;;7.25;100.00;98574.56;4987758;28;19933;-44
2022/09/22 16:27:59;;;;;;;;;;;;;;;7.08;100.00;98579.66;5003643;28;19933;-44
2022/09/22 16:30:27;;;;;;;;;;;;;;;7.14;100.00;98584.66;5000881;28;19926;-45
2022/09/22 16:32:54;;;;;;;;;;;;;;;7.34;100.00;98576.78;4981532;28;20356;-43
2022/09/22 16:35:23;;;;;;;;;;;;;;;7.35;100.00;98581.97;5006733;28;19926;-45
2022/09/22 16:37:54;;;;;;;;;;;;;;;7.51;100.00;98580.41;5002951;28;19962;-43
2022/09/22 16:40:22;;;;;;;;;;;;;;;7.54;100.00;98579.44;4987212;28;20376;-44
2022/09/22 16:42:49;;;;;;;;;;;;;;;7.72;100.00;98581.25;4998672;28;20377;-43
2022/09/22 16:46:25;;;;;;;;;;;;;;;7.91;100.00;98580.38;5003975;28;20545;-44
2022/09/22 16:48:04;;;;;;;;;;;;;;;7.89;100.00;98583.97;5003212;28;19992;-44
2022/09/22 16:50:35;;;;;;;;;;;;;;;7.92;100.00;98576.84;5006407;28;19941;-43
2022/09/22 16:53:04;;;;;;;;;;;;;;;8.09;100.00;98574.28;4996860;28;19926;-48
2022/09/22 16:55:31;;;;;;;;;;;;;;;8.05;100.00;98572.75;4988388;28;19936;-44
2022/09/22 16:58:00;;;;;;;;;;;;;;;7.93;100.00;98583.78;5002472;28;19925;-45
2022/09/22 17:00:29;;;;;;;;;;;;;;;7.99;100.00;98575.66;5005124;28;19933;-44
2022/09/22 17:02:56;;;;;;;;;;;;;;;7.86;100.00;98581.50;5006857;28;19925;-44
2022/09/22 17:05:23;;;;;;;;;;;;;;;8.01;100.00;98584.28;5003826;28;20377;-44
2022/09/22 17:07:50;;;;;;;;;;;;;;;7.95;100.00;98584.56;5001422;28;20372;-46
2022/09/22 17:10:18;;;;;;;;;;;;;;;8.05;100.00;98585.84;4998419;28;19929;-43
2022/09/22 17:12:45;;;;;;;;;;;;;;;8.07;100.00;98585.78;5001224;28;19926;-45
2022/09/22 17:15:15;;;;;;;;;;;;;;;8.00;100.00;98581.72;4994524;28;19926;-44
2022/09/22 17:17:43;;;;;;;;;;;;;;;8.00;100.00;98587.84;4993649;28;19933;-46
2022/09/22 17:20:10;;;;;;;;;;;;;;;7.98;100.00;98592.28;4992127;28;19926;-47
2022/09/22 17:22:37;;;;;;;;;;;;;;;8.12;100.00;98589.03;5002836;28;20396;-45
2022/09/22 17:25:05;;;;;;;;;;;;;;;8.08;100.00;98587.47;4997606;28;19964;-46
2022/09/22 17:27:34;;;;;;;;;;;;;;;7.97;100.00;98594.97;4997029;28;19988;-48
2022/09/22 17:30:01;;;;;;;;;;;;;;;7.92;100.00;98595.19;5004277;28;19989;-45
2022/09/22 17:32:28;;;;;;;;;;;;;;;7.91;100.00;98595.25;5004174;28;20032;-45
2022/09/22 17:34:55;;;;;;;;;;;;;;;7.92;100.00;98589.94;4999726;28;20447;-46
2022/09/22 17:37:22;;;;;;;;;;;;;;;7.88;100.00;98598.00;4997546;28;19940;-45
2022/09/22 17:39:49;;;;;;;;;;;;;;;7.80;100.00;98598.31;5002944;28;20020;-46
2022/09/22 17:42:16;;;;;;;;;;;;;;;7.84;100.00;98605.16;4976259;28;19955;-47
2022/09/22 17:44:45;;;;;;;;;;;;;;;7.77;100.00;98595.88;5002733;28;19929;-46
2022/09/22 17:55:31;;;;;;;;;;;;;;;7.69;100.00;98605.78;4923062;29;19965;-45
2022/09/22 17:57:59;;;;;;;;;;;;;;;7.55;100.00;98608.16;4923366;29;20053;-46
2022/09/22 18:00:27;;;;;;;;;;;;;;;7.62;100.00;98614.84;4931253;29;19933;-47
2022/09/22 18:02:55;;;;;;;;;;;;;;;7.69;100.00;98612.78;4929281;29;19934;-44
2022/09/22 18:05:24;;;;;;;;;;;;;;;7.73;100.00;98614.38;4938527;29;19928;-44
2022/09/22 18:07:57;;;;;;;;;;;;;;;7.64;100.00;98614.75;4930856;29;19935;-45
2022/09/22 18:10:29;;;;;;;;;;;;;;;7.66;100.00;98621.66;4915217;29;19938;-43
2022/09/22 18:12:56;;;;;;;;;;;;;;;7.63;100.00;98607.81;4929464;29;20023;-44
2022/09/22 18:15:24;;;;;;;;;;;;;;;7.70;100.00;98610.13;4925458;29;19930;-47
2022/09/22 18:17:56;;;;;;;;;;;;;;;7.64;100.00;98618.22;4922550;29;19930;-46
2022/09/22 18:20:25;;;;;;;;;;;;;;;7.65;100.00;98621.72;4927346;29;19949;-45
2022/09/22 18:22:52;;;;;;;;;;;;;;;7.56;100.00;98624.69;4918027;29;20052;-44
2022/09/22 18:25:21;;;;;;;;;;;;;;;7.56;100.00;98622.94;4911980;29;19947;-44
2022/09/22 18:27:49;;;;;;;;;;;;;;;7.58;100.00;98626.34;5002566;28;19934;-44
2022/09/22 18:30:18;;;;;;;;;;;;;;;7.58;100.00;98626.34;5005869;28;19933;-47
2022/09/22 18:32:45;;;;;;;;;;;;;;;7.61;100.00;98626.22;5007675;28;19933;-46
2022/09/22 18:35:14;;;;;;;;;;;;;;;7.55;100.00;98630.88;5011250;28;19925;-44